Cross Country
2019 XC
| Date | Meet | Event | Result | Place | Rating | Difficulty | PR/SR Flags |
|---|---|---|---|---|---|---|---|
| 2019-11-16 | Laverne Gibson Course | 5000m | 18:10.2 | 482nd · 4th on team | 118.0 | +0.010 | ★CR CSR RSR |
| 2019-10-26 | Pickerington North HS | 5000m | 17:47.4 | 71st · 4th on team | 117.5 | -0.020 | ★CR CSR RSR |
| 2019-10-19 | Hilliard Darby HS | 5000m | 17:42.5 | 21st · 4th on team | 115.7 | -0.031 | ★PR ★CR SR CSR RSR |
| 2019-09-21 | Dublin Jerome | 5000m | 18:03.3 | 75th · 4th on team | 111.2 | -0.050 | ★CR SR CSR RSR |
2018 XC
| Date | Meet | Event | Result | Place | Rating | Difficulty | PR/SR Flags |
|---|---|---|---|---|---|---|---|
| 2018-11-11 | Laverne Gibson Course | 5000m | 18:53.3 | 551st · 3rd on team | 113.9 | +0.010 | CR CSR |
| 2018-10-20 | Hilliard Darby HS | 5000m | 18:16.2 | 25th · 3rd on team | 113.2 | -0.031 | CR CSR |
| 2018-10-13 | Circleville HS | 5000m | 17:50.6 | 17th · 3rd on team | 117.5 | -0.016 | PR ★CR SR CSR RSR |
| 2018-10-06 | Marion Harding HS | 5000m | 18:40.9 | 63rd · 3rd on team | 111.8 | -0.029 | CSR |
| 2018-09-22 | Lancaster HS | 5000m | 18:33.9 | 23rd · 3rd on team | 113.3 | -0.009 | ★CR CSR |
| 2018-09-08 | Watkins-Memorial HS | 5000m | 19:36.4 | 68th · 3rd on team | 107.9 | -0.028 | CSR |
| 2018-09-01 | Hargus Lake | 5000m | 18:24.2 | 27th · 2nd on team | 114.2 | -0.014 | ★CR SR CSR RSR |
2017 XC
| Date | Meet | Event | Result | Place | Rating | Difficulty | PR/SR Flags |
|---|---|---|---|---|---|---|---|
| 2017-11-12 | Laverne Gibson Course | 5000m | 19:20.7 | 200th · 2nd on team | 109.7 | +0.010 | CR CSR |
| 2017-10-21 | Watkins-Memorial HS | 5000m | 18:17.2 | 26th · 3rd on team | 113.2 | -0.028 | PR ★CR R SR CSR RSR |
| 2017-10-07 | Marion Harding HS | 5000m | 18:30.6 | 72nd · 3rd on team | 111.8 | -0.029 | PR ★CR R SR CSR RSR |
| 2017-09-30 | Pickerington North HS | 5000m | 19:06.3 | 116th · 6th on team | 107.8 | -0.020 | CR CSR |
| 2017-09-23 | Lancaster High School | 5000m | 19:20.2 | 46th · 3rd on team | 110.2 | -0.009 | ★CR R CSR RSR |
| 2017-09-16 | Ammans Park | 5000m | 18:55 | 110th · 2nd on team | 108.3 | -0.037 | ★CR CSR RSR |
| 2017-09-02 | Ohio Christian University | 5000m | 18:48.1 | 40th · 1st on team | 107.4 | -0.022 | PR ★CR SR CSR RSR |
Track & Field
2020 TF
| Date | Meet | Event | Result | Place | Rating | Difficulty | PR/SR Flags |
|---|---|---|---|---|---|---|---|
| 2020-02-23 | Central District Indoor Championships | 1600m | 5:12.57 | 8th · 2nd on team | 111.2 | -0.030 | SR |
| 2020-02-08 | Ohio State Univ Buckeye HS Qualifier Meet #4 | 3200m | 11:14.43 | 18th · 1st on team | 110.4 | -0.034 | SR |
| 2020-01-26 | Capital University HS Meet #2 | 800m | 2:18.4 | 10th · 1st on team | 112.5 | -0.030 | SR RSR |
2019 TF
| Date | Meet | Event | Result | Place | Rating | Difficulty | PR/SR Flags |
|---|---|---|---|---|---|---|---|
| 2019-05-18 | OHSAA D2 Central District (Westerville) | 3200m | 11:29.25 | 8th · 2nd on team | 107.5 | -0.037 | |
| 2019-05-10 | MSL Buckeye Championship Finals | 3200m | 10:38.66 | 5th · 2nd on team | 115.5 | -0.037 | ★PR SR |
| 2019-05-04 | Mount Gilead Indian Invitational | 800m | 2:20.22 | 11th · 2nd on team | 108.2 | -0.039 | |
| 2019-05-01 | BC-CA Dual | 800m | 2:11.8 | 6th · 5th on team | 115.7 | -0.035 | SR RSR |
| 2019-04-26 | Millersport Laker Invitational | 3200m | 10:48.02 | 2nd · 1st on team | 114.5 | -0.037 | |
| 2019-04-24 | BC-BU-CSG-NY Quad | 1600m | 4:57.3 | 1st · 1st on team | 114.5 | -0.035 | |
| 2019-04-24 | BC-BU-CSG-NY Quad | 800m | 2:12.7 | 2nd · 1st on team | 114.2 | -0.035 | SR |
| 2019-04-20 | Bloom Carroll Invitational | 3200m | 10:46.11 | 4th · 1st on team | 114.3 | -0.038 | PR SR |
| 2019-04-16 | BC-Fair-Lon-Mech Quad | 800m | 2:15 | 4th · 4th on team | 111.5 | -0.046 | SR |
| 2019-04-13 | Hank Smith Invitational | 1600m | 4:54.36 | 13th · 1st on team | 115.2 | -0.040 | ★PR SR RSR |
| 2019-04-06 | Fairfield Union Falcon Invitational | 3200m | 11:08.55 | 9th · 2nd on team | 109.4 | -0.042 | PR SR |
| 2019-04-02 | Logan Elm/Bloom Carroll Dual | 1600m | 5:00.33 | 2nd · 2nd on team | 113.3 | -0.036 | SR RSR |
| 2019-03-30 | Circleville Relays | 1600m | 5:11.4 | 4th · 4th on team | 109.7 | -0.038 | |
| 2019-03-26 | AC-BC Dual | 3200m | 11:12.6 | 1st · 1st on team | 109.2 | -0.039 | PR SR |
| 2019-01-12 | OWU HS Kickoff Classic | 800m | 2:21.72 | 16th · 3rd on team | 108.8 | -0.035 | SR RSR |
| 2019-01-12 | OWU HS Kickoff Classic | 1600m | 5:07.11 | 13th · 3rd on team | 112.5 | -0.035 | SR RSR |
2018 TF
| Date | Meet | Event | Result | Place | Rating | Difficulty | PR/SR Flags |
|---|---|---|---|---|---|---|---|
| 2018-05-11 | MSL Buckeye Championship Finals | 800m | 2:06.86 | 8th · 2nd on team | 119.3 | -0.037 | ★PR ★R SR RSR |
| 2018-05-05 | MG Distance | 800m | 2:11 | 1st · 1st on team | 115.7 | -0.035 | PR R SR RSR |
| 2018-05-01 | BC-HP-LO Tri | tj | 28-11.50 | — | — | -0.038 | |
| 2018-05-01 | BC-HP-LO Tri | 3200m | 11:18.6 | 2nd · 1st on team | 109.3 | -0.038 | PR SR |
| 2018-04-27 | Millersport Laker Invitational | 800m | 2:13.77 | 5th · 2nd on team | 112.8 | -0.037 | PR SR |
| 2018-04-21 | Bloom Carroll Invitational | tj | 25-09.00 | — | — | -0.038 | |
| 2018-04-14 | Hank Smith Invitational | 800m | 2:16.13 | 25th · 2nd on team | 110.8 | -0.040 | |
| 2018-04-14 | Hank Smith Invitational | 1600m | 4:59.78 | 16th · 1st on team | 113.1 | -0.040 | |
| 2018-04-05 | BC-BX-FU Tri | 1600m | 4:58.7 | 2nd · 1st on team | 114.2 | -0.038 | PR R SR RSR |
| 2018-04-05 | BC-BX-FU Tri | 800m | 2:15.1 | 2nd · 2nd on team | 112.4 | -0.038 | PR SR |
| 2018-01-28 | Capital University HS Meet | 1600m | 5:16.81 | 20th · 3rd on team | 109.5 | -0.030 | |
| 2018-01-14 | Otterbein HS Qualifier 2 | 1600m | 5:15.54 | 43rd · 4th on team | 109.5 | -0.033 | PR SR RSR |
2017 TF
| Date | Meet | Event | Result | Place | Rating | Difficulty | PR/SR Flags |
|---|---|---|---|---|---|---|---|
| 2017-05-20 | OHSAA D2 Central District | 400m | 1:00.99 | 30th · 1st on team | — | -0.041 | |
| 2017-05-18 | Central District D2 | 400m | 1:00.99 | 1st · 1st on team | — | -0.041 | |
| 2017-05-12 | Mid-State League Buckeye Finals | 800m | 2:19.91 | 12th · 2nd on team | 107.4 | -0.042 | |
| 2017-05-02 | LO/BC/LE/MI/SD Meet | lj | 14-04.00 | — | — | -0.031 | |
| 2017-05-02 | LO/BC/LE/MI/SD Meet | 800m | 2:24.29 | 4th · 3rd on team | 105.9 | -0.031 | |
| 2017-04-28 | Millersport Laker Invitational | 800m | 2:17.76 | 4th · 1st on team | 109.2 | -0.039 | PR SR |
| 2017-04-22 | Bloom Carroll Invitational | 800m | 2:18.93 | 13th · 1st on team | 108.6 | -0.038 | |
| 2017-04-19 | BC/LU/MP Tri | lj | 13-11.25 | — | — | -0.035 | |
| 2017-04-19 | BC/LU/MP Tri | 800m | 2:18.2 | 3rd · 2nd on team | 109.4 | -0.035 | PR R SR RSR |
| 2017-04-08 | Fairfield Union Invitational | 400m | 59.61 | 17th · 1st on team | — | -0.042 | ★PR SR |
| 2017-04-04 | BC/BX/FU Tri | 100m | 13.34 | 6th · 6th on team | — | -0.035 | ★PR SR |
| 2017-04-01 | Rocky Brands Invitational | 400m | 1:02.05 | 23rd · 2nd on team | — | -0.036 | PR SR |
| 2017-04-01 | Rocky Brands Invitational | 200m | 27.31 | 22nd · 2nd on team | — | -0.036 | ★PR SR |